Time;durP1;ratioP1;P1;durP2;ratioP2;P2;SDS_P1;SDS_P2;PMS_P1;PMS_P2;Temp;Humidity;BMP_temperature;BMP_pressure;BME280_temperature;BME280_humidity;BME280_pressure;Samples;Min_cycle;Max_cycle;Signal;HPM_P1;HPM_P2
2022/01/17 00:00:39;;;;;;;50.58;25.23;;;;;;;;;;10196459;29;20048;-68
2022/01/17 00:05:47;;;;;;;56.15;25.85;;;;;;;;;;10197304;29;20064;-68
2022/01/17 00:10:52;;;;;;;52.10;24.60;;;;;;;;;;10195376;29;20104;-68
2022/01/17 00:16:02;;;;;;;50.80;25.27;;;;;;;;;;10195582;29;20157;-67
2022/01/17 00:21:05;;;;;;;50.22;24.42;;;;;;;;;;10208272;29;20055;-68
2022/01/17 00:26:08;;;;;;;54.40;24.88;;;;;;;;;;10195571;29;20060;-68
2022/01/17 00:31:12;;;;;;;48.45;23.98;;;;;;;;;;10195737;29;20092;-68
2022/01/17 00:36:14;;;;;;;48.05;23.13;;;;;;;;;;10195082;29;20114;-67
2022/01/17 00:41:16;;;;;;;42.40;21.17;;;;;;;;;;10195253;29;20071;-68
2022/01/17 00:46:20;;;;;;;49.65;22.20;;;;;;;;;;10194246;29;20096;-68
2022/01/17 00:51:22;;;;;;;50.92;23.23;;;;;;;;;;10195019;29;20076;-68
2022/01/17 00:56:24;;;;;;;43.38;21.20;;;;;;;;;;10193514;29;20052;-68
2022/01/17 01:01:28;;;;;;;43.60;20.75;;;;;;;;;;10194891;29;20059;-68
2022/01/17 01:06:31;;;;;;;41.20;20.25;;;;;;;;;;10194416;29;20044;-68
2022/01/17 01:11:33;;;;;;;46.97;20.17;;;;;;;;;;10193807;29;20115;-68
2022/01/17 01:16:37;;;;;;;37.33;19.65;;;;;;;;;;10193615;29;20127;-68
2022/01/17 01:21:47;;;;;;;38.22;19.38;;;;;;;;;;10194259;29;20059;-68
2022/01/17 01:32:12;;;;;;;38.95;19.27;;;;;;;;;;10198432;29;20068;-68
2022/01/17 01:37:15;;;;;;;32.83;17.90;;;;;;;;;;10176987;29;20079;-68
2022/01/17 01:42:19;;;;;;;35.60;16.67;;;;;;;;;;10192686;29;20072;-68
2022/01/17 01:47:25;;;;;;;37.40;18.02;;;;;;;;;;10192710;29;20078;-68
2022/01/17 01:52:27;;;;;;;32.40;16.98;;;;;;;;;;10205292;29;20151;-67
2022/01/17 01:57:29;;;;;;;33.67;16.55;;;;;;;;;;10192197;29;20060;-69
2022/01/17 02:02:34;;;;;;;30.35;15.35;;;;;;;;;;10192066;29;20247;-69
2022/01/17 02:07:38;;;;;;;31.95;14.15;;;;;;;;;;10190116;29;20052;-68
2022/01/17 02:12:41;;;;;;;25.33;12.48;;;;;;;;;;10188552;29;20086;-68
2022/01/17 02:17:54;;;;;;;28.13;13.40;;;;;;;;;;10186102;29;20074;-68
2022/01/17 02:22:58;;;;;;;23.52;12.35;;;;;;;;;;10204686;29;20323;-68
2022/01/17 02:28:00;;;;;;;20.85;12.27;;;;;;;;;;10192220;29;20367;-68
2022/01/17 02:33:04;;;;;;;27.20;13.38;;;;;;;;;;10193150;29;20350;-66
2022/01/17 02:38:07;;;;;;;20.90;12.18;;;;;;;;;;10202151;29;20084;-67
2022/01/17 02:43:10;;;;;;;18.90;11.68;;;;;;;;;;10191648;29;20402;-69
2022/01/17 02:48:12;;;;;;;26.08;11.88;;;;;;;;;;10153641;29;20052;-68
2022/01/17 02:53:16;;;;;;;17.00;10.20;;;;;;;;;;10179396;29;20387;-68
2022/01/17 02:58:20;;;;;;;20.73;9.93;;;;;;;;;;10190697;29;20079;-67
2022/01/17 03:03:25;;;;;;;16.30;9.33;;;;;;;;;;10189847;29;20240;-67
2022/01/17 03:08:33;;;;;;;12.27;7.30;;;;;;;;;;10188433;29;20072;-67
2022/01/17 03:13:37;;;;;;;11.25;6.22;;;;;;;;;;10202979;29;20052;-68
2022/01/17 03:18:41;;;;;;;17.20;5.80;;;;;;;;;;10188564;29;20080;-68
2022/01/17 03:23:46;;;;;;;15.47;6.30;;;;;;;;;;10192218;29;20052;-69
2022/01/17 03:28:48;;;;;;;11.95;6.00;;;;;;;;;;10197537;29;20322;-69
2022/01/17 03:33:51;;;;;;;11.10;5.47;;;;;;;;;;10196725;29;20072;-67
2022/01/17 03:38:56;;;;;;;9.45;4.38;;;;;;;;;;10190803;29;20047;-67
2022/01/17 03:43:58;;;;;;;9.70;4.73;;;;;;;;;;10197057;29;20051;-68
2022/01/17 03:49:00;;;;;;;11.40;4.55;;;;;;;;;;10195993;29;20303;-67
2022/01/17 03:54:04;;;;;;;8.93;4.07;;;;;;;;;;10196808;29;20044;-67
2022/01/17 03:59:06;;;;;;;11.63;3.78;;;;;;;;;;10194947;29;20080;-67
2022/01/17 04:04:08;;;;;;;8.27;4.50;;;;;;;;;;10196556;29;20044;-67
2022/01/17 04:09:12;;;;;;;9.10;5.13;;;;;;;;;;10195907;29;20076;-68
2022/01/17 04:14:16;;;;;;;8.82;4.72;;;;;;;;;;10190860;29;20080;-67
2022/01/17 04:19:19;;;;;;;10.73;4.28;;;;;;;;;;10194879;29;20047;-68
2022/01/17 04:24:23;;;;;;;8.00;3.78;;;;;;;;;;10195301;29;20048;-68
2022/01/17 04:29:25;;;;;;;8.88;3.20;;;;;;;;;;10193928;29;20239;-68
2022/01/17 04:34:28;;;;;;;10.50;3.55;;;;;;;;;;10194993;29;20119;-68
2022/01/17 04:39:32;;;;;;;13.10;3.25;;;;;;;;;;10195559;29;20044;-68
2022/01/17 04:49:54;;;;;;;6.80;2.00;;;;;;;;;;10162979;29;20060;-67
2022/01/17 04:55:01;;;;;;;6.57;2.70;;;;;;;;;;10156429;29;20076;-68
2022/01/17 05:00:06;;;;;;;9.18;2.50;;;;;;;;;;10194644;29;20092;-68
2022/01/17 05:05:09;;;;;;;7.20;2.47;;;;;;;;;;10193531;29;20044;-68
2022/01/17 05:10:15;;;;;;;11.38;2.63;;;;;;;;;;10193890;29;20044;-68
2022/01/17 05:15:25;;;;;;;8.07;2.00;;;;;;;;;;10203822;29;20052;-67
2022/01/17 05:20:28;;;;;;;14.43;2.28;;;;;;;;;;10204815;29;20044;-68
2022/01/17 05:25:32;;;;;;;6.72;2.10;;;;;;;;;;10193180;29;20095;-68
2022/01/17 05:30:34;;;;;;;7.13;2.03;;;;;;;;;;10192690;29;20188;-68
2022/01/17 05:35:37;;;;;;;6.47;2.20;;;;;;;;;;10192819;29;20098;-67
2022/01/17 05:40:41;;;;;;;4.78;2.28;;;;;;;;;;10193643;29;20255;-68
2022/01/17 05:45:43;;;;;;;11.52;3.03;;;;;;;;;;10192475;29;20280;-68
2022/01/17 05:50:45;;;;;;;9.20;2.40;;;;;;;;;;10190995;29;20075;-68
2022/01/17 05:55:49;;;;;;;8.45;2.38;;;;;;;;;;10180381;29;20348;-68
2022/01/17 06:00:52;;;;;;;10.98;2.72;;;;;;;;;;10191509;29;20087;-68
2022/01/17 06:05:55;;;;;;;12.75;2.78;;;;;;;;;;10189107;29;20055;-68
2022/01/17 06:10:59;;;;;;;12.20;3.30;;;;;;;;;;10190579;29;20087;-69
2022/01/17 06:16:01;;;;;;;9.80;3.60;;;;;;;;;;10190788;29;20064;-67
2022/01/17 06:21:04;;;;;;;10.48;4.10;;;;;;;;;;10189844;29;20364;-69
2022/01/17 06:26:07;;;;;;;10.35;3.30;;;;;;;;;;10191034;29;20048;-67
2022/01/17 06:31:09;;;;;;;10.70;2.90;;;;;;;;;;10190880;29;20132;-68
2022/01/17 06:36:12;;;;;;;9.38;3.53;;;;;;;;;;10184726;29;20124;-68
2022/01/17 06:41:15;;;;;;;10.23;3.63;;;;;;;;;;10185114;29;20286;-69
2022/01/17 06:46:18;;;;;;;6.70;3.03;;;;;;;;;;10190301;29;20076;-67
2022/01/17 06:51:20;;;;;;;7.18;2.97;;;;;;;;;;10191353;29;20044;-68
2022/01/17 06:56:24;;;;;;;8.60;2.83;;;;;;;;;;10182304;29;20081;-69
2022/01/17 07:01:26;;;;;;;9.50;2.50;;;;;;;;;;10196855;29;20092;-68
2022/01/17 07:06:28;;;;;;;6.38;2.72;;;;;;;;;;10197841;29;20111;-69
2022/01/17 07:11:37;;;;;;;9.18;3.17;;;;;;;;;;10193413;29;20091;-68
2022/01/17 07:16:41;;;;;;;8.63;3.58;;;;;;;;;;10209842;29;20048;-69
2022/01/17 07:21:44;;;;;;;10.10;3.28;;;;;;;;;;10197518;29;20044;-69
2022/01/17 07:26:47;;;;;;;8.68;3.60;;;;;;;;;;10198074;29;20072;-68
2022/01/17 07:31:50;;;;;;;9.95;3.00;;;;;;;;;;10196563;29;20044;-68
2022/01/17 07:36:52;;;;;;;11.07;3.28;;;;;;;;;;10210014;29;20048;-68
2022/01/17 07:41:56;;;;;;;10.82;3.10;;;;;;;;;;10196568;29;20351;-68
2022/01/17 07:47:01;;;;;;;7.90;3.00;;;;;;;;;;10196551;29;20280;-68
2022/01/17 07:52:06;;;;;;;5.32;2.92;;;;;;;;;;10196862;29;20262;-68
2022/01/17 07:57:10;;;;;;;14.43;3.95;;;;;;;;;;10195154;29;20047;-68
2022/01/17 08:02:12;;;;;;;14.13;4.18;;;;;;;;;;10196330;29;20365;-67
2022/01/17 08:07:15;;;;;;;13.15;4.90;;;;;;;;;;10196431;29;20095;-67
2022/01/17 08:12:18;;;;;;;12.35;3.80;;;;;;;;;;10195456;29;20107;-68
2022/01/17 08:17:21;;;;;;;9.05;3.10;;;;;;;;;;10194041;29;20072;-69
2022/01/17 08:22:23;;;;;;;9.15;3.05;;;;;;;;;;10195779;29;20127;-68
2022/01/17 08:27:27;;;;;;;9.43;3.70;;;;;;;;;;10172680;29;20083;-68
2022/01/17 08:32:31;;;;;;;5.55;1.20;;;;;;;;;;10195462;29;20067;-68
2022/01/17 08:37:34;;;;;;;3.22;1.05;;;;;;;;;;10194665;29;20071;-70
2022/01/17 08:42:38;;;;;;;3.08;0.85;;;;;;;;;;10195014;29;20048;-71
2022/01/17 08:47:40;;;;;;;1.45;1.20;;;;;;;;;;10193830;29;20048;-70
2022/01/17 08:52:42;;;;;;;2.90;1.83;;;;;;;;;;10226400;29;20066;-70
2022/01/17 08:57:46;;;;;;;6.10;1.80;;;;;;;;;;10234672;28;20394;-70
2022/01/17 09:02:49;;;;;;;2.25;1.70;;;;;;;;;;10213066;29;20075;-69
2022/01/17 09:07:51;;;;;;;4.25;1.92;;;;;;;;;;10193015;29;20052;-68
2022/01/17 09:12:56;;;;;;;4.03;1.80;;;;;;;;;;10194118;29;20044;-70
2022/01/17 09:17:59;;;;;;;;;;;;;;;;;;10203875;29;20067;-67
2022/01/17 09:23:01;;;;;;;8.40;5.20;;;;;;;;;;10175568;29;19919;-68
2022/01/17 09:28:05;;;;;;;9.52;5.10;;;;;;;;;;10155017;29;20348;-70
2022/01/17 09:33:08;;;;;;;10.27;4.07;;;;;;;;;;10188951;29;20048;-70
2022/01/17 09:38:11;;;;;;;10.60;3.45;;;;;;;;;;10193948;29;20084;-70
2022/01/17 09:43:15;;;;;;;10.05;3.10;;;;;;;;;;10193726;29;20326;-70
2022/01/17 09:48:20;;;;;;;7.72;2.67;;;;;;;;;;10186102;29;20048;-68
2022/01/17 09:53:22;;;;;;;;;;;;;;;;;;10205820;29;20090;-68
2022/01/17 09:58:27;;;;;;;6.43;3.38;;;;;;;;;;10191971;29;20249;-69
2022/01/17 10:03:29;;;;;;;6.53;3.10;;;;;;;;;;10186685;29;20080;-69
2022/01/17 10:08:32;;;;;;;6.38;3.15;;;;;;;;;;10191527;29;20413;-70
2022/01/17 10:13:37;;;;;;;6.15;3.05;;;;;;;;;;10186336;29;20057;-69
2022/01/17 10:18:41;;;;;;;;;;;;;;;;;;10205561;29;20075;-69
2022/01/17 10:40:01;;;;;;;7.00;2.90;;;;;;;;;;10151507;29;20086;-69
2022/01/17 10:45:10;;;;;;;9.65;3.40;;;;;;;;;;10152848;29;20052;-69
2022/01/17 10:50:15;;;;;;;16.88;3.65;;;;;;;;;;10164160;29;20099;-69
2022/01/17 10:55:20;;;;;;;6.47;3.20;;;;;;;;;;10189044;29;20052;-68
2022/01/17 11:00:25;;;;;;;10.65;3.33;;;;;;;;;;10189352;29;20303;-68
2022/01/17 11:05:28;;;;;;;;;;;;;;;;;;10204411;29;20048;-69
2022/01/17 11:10:33;;;;;;;10.10;3.40;;;;;;;;;;10188676;29;19966;-68
2022/01/17 11:15:39;;;;;;;11.23;3.60;;;;;;;;;;10189793;29;20044;-68
2022/01/17 11:20:41;;;;;;;6.25;3.03;;;;;;;;;;10189927;29;20087;-68
2022/01/17 11:25:45;;;;;;;7.35;2.92;;;;;;;;;;10190195;29;20060;-68
2022/01/17 11:30:50;;;;;;;6.10;2.88;;;;;;;;;;10189525;29;20071;-67
2022/01/17 11:35:54;;;;;;;9.82;3.90;;;;;;;;;;10191563;29;20056;-70
2022/01/17 11:40:57;;;;;;;5.97;3.00;;;;;;;;;;10194410;29;20295;-70
2022/01/17 11:46:03;;;;;;;7.75;2.55;;;;;;;;;;10196586;29;20103;-69
2022/01/17 11:51:12;;;;;;;7.85;2.88;;;;;;;;;;10195800;29;20067;-69
2022/01/17 11:56:38;;;;;;;8.07;2.80;;;;;;;;;;10202532;29;20053;-69
2022/01/17 12:01:42;;;;;;;;;;;;;;;;;;10189991;29;20082;-68
2022/01/17 12:06:44;;;;;;;4.15;2.30;;;;;;;;;;10220803;28;20119;-68
2022/01/17 12:11:47;;;;;;;4.35;1.98;;;;;;;;;;10222973;29;20052;-70
2022/01/17 12:16:51;;;;;;;5.72;2.05;;;;;;;;;;10164578;29;20083;-70
2022/01/17 12:22:06;;;;;;;5.05;2.00;;;;;;;;;;10164243;29;20079;-70
2022/01/17 12:27:18;;;;;;;;;;;;;;;;;;10187365;29;20331;-69
2022/01/17 12:32:47;;;;;;;5.78;2.42;;;;;;;;;;10186670;29;19957;-70
2022/01/17 12:37:51;;;;;;;7.85;2.10;;;;;;;;;;10208742;29;20048;-69
2022/01/17 12:43:03;;;;;;;4.68;2.28;;;;;;;;;;10187944;29;20076;-69
2022/01/17 12:48:09;;;;;;;13.50;5.18;;;;;;;;;;10213832;29;20066;-69
2022/01/17 12:53:14;;;;;;;7.40;2.67;;;;;;;;;;10213974;29;20083;-69
2022/01/17 12:58:17;;;;;;;;;;;;;;;;;;10207670;29;20043;-69
2022/01/17 13:03:24;;;;;;;4.85;1.73;;;;;;;;;;10195129;29;19939;-69
2022/01/17 13:08:26;;;;;;;5.25;1.90;;;;;;;;;;10206909;29;20072;-68
2022/01/17 13:13:30;;;;;;;6.60;2.10;;;;;;;;;;10193498;29;20052;-69
2022/01/17 13:18:34;;;;;;;11.23;2.25;;;;;;;;;;10205068;29;20071;-68
2022/01/17 13:23:42;;;;;;;6.93;2.08;;;;;;;;;;10192662;29;20216;-68
2022/01/17 13:28:47;;;;;;;19.55;6.53;;;;;;;;;;10207272;29;20071;-69
2022/01/17 13:33:52;;;;;;;9.68;2.45;;;;;;;;;;10192553;29;20322;-68
2022/01/17 13:39:05;;;;;;;8.38;2.47;;;;;;;;;;10193171;29;20074;-69
2022/01/17 13:44:08;;;;;;;10.25;2.65;;;;;;;;;;10205528;29;20040;-67
2022/01/17 13:49:12;;;;;;;6.85;2.78;;;;;;;;;;10193095;29;20276;-69
2022/01/17 13:54:24;;;;;;;7.13;2.33;;;;;;;;;;10192211;29;20048;-67
2022/01/17 13:59:26;;;;;;;4.68;2.22;;;;;;;;;;10204191;29;20056;-66
2022/01/17 14:04:30;;;;;;;7.10;2.80;;;;;;;;;;10191130;29;20094;-68
2022/01/17 14:09:33;;;;;;;6.43;2.10;;;;;;;;;;10190948;29;20055;-69
2022/01/17 14:14:36;;;;;;;6.00;2.85;;;;;;;;;;10190984;29;20115;-69
2022/01/17 14:19:40;;;;;;;6.28;2.40;;;;;;;;;;10190050;29;20072;-68
2022/01/17 14:24:44;;;;;;;7.45;2.97;;;;;;;;;;10190992;29;20058;-70
2022/01/17 14:29:49;;;;;;;5.97;2.10;;;;;;;;;;10189322;29;20078;-68
2022/01/17 14:34:53;;;;;;;5.22;2.10;;;;;;;;;;10189047;29;20088;-69
2022/01/17 14:39:59;;;;;;;11.40;2.78;;;;;;;;;;10191850;29;20259;-70
2022/01/17 14:45:03;;;;;;;8.27;2.42;;;;;;;;;;10201962;29;20048;-70
2022/01/17 14:50:08;;;;;;;5.80;2.50;;;;;;;;;;10190490;29;20048;-69
2022/01/17 14:59:22;;;;;;;10.48;2.92;;;;;;;;;;10190395;29;20067;-69
2022/01/17 15:01:00;;;;;;;;;;;;;;;;;;10188484;29;20060;-68
2022/01/17 15:06:04;;;;;;;;;;;;;;;;;;10162755;29;19967;-68
2022/01/17 15:11:08;;;;;;;8.93;2.42;;;;;;;;;;10167617;29;20122;-67
2022/01/17 15:16:11;;;;;;;10.50;2.83;;;;;;;;;;10196723;29;20059;-70
2022/01/17 15:21:16;;;;;;;10.30;2.92;;;;;;;;;;10198481;29;20056;-67
2022/01/17 15:26:18;;;;;;;6.50;2.70;;;;;;;;;;10198235;29;20058;-69
2022/01/17 15:31:21;;;;;;;7.65;2.83;;;;;;;;;;10197892;29;20056;-69
2022/01/17 15:36:27;;;;;;;7.32;2.72;;;;;;;;;;10197296;29;20063;-69
2022/01/17 15:41:29;;;;;;;10.57;4.22;;;;;;;;;;10210717;29;20159;-67
2022/01/17 15:46:32;;;;;;;9.20;3.15;;;;;;;;;;10197940;29;20115;-69
2022/01/17 15:51:36;;;;;;;9.70;3.90;;;;;;;;;;10198107;29;20044;-69
2022/01/17 15:56:38;;;;;;;13.30;6.53;;;;;;;;;;10196608;29;20095;-68
2022/01/17 16:01:40;;;;;;;12.85;6.63;;;;;;;;;;10196855;29;20040;-69
2022/01/17 16:06:44;;;;;;;12.43;4.50;;;;;;;;;;10196668;29;20048;-67
2022/01/17 16:11:46;;;;;;;11.88;3.40;;;;;;;;;;10197183;29;20056;-68
2022/01/17 16:16:48;;;;;;;11.23;3.78;;;;;;;;;;10197576;29;20052;-68
2022/01/17 16:21:53;;;;;;;11.52;5.28;;;;;;;;;;10197583;29;20043;-68
2022/01/17 16:26:55;;;;;;;8.95;3.08;;;;;;;;;;10204919;29;20072;-69
2022/01/17 16:31:57;;;;;;;10.57;3.65;;;;;;;;;;10201321;28;20237;-68
2022/01/17 16:37:01;;;;;;;8.57;3.78;;;;;;;;;;10209198;29;20063;-69
2022/01/17 16:42:04;;;;;;;10.70;3.97;;;;;;;;;;10196119;29;20048;-72
2022/01/17 16:47:10;;;;;;;12.77;4.50;;;;;;;;;;10208295;29;20079;-69
2022/01/17 16:52:13;;;;;;;14.10;3.40;;;;;;;;;;10196387;29;20044;-68
2022/01/17 16:57:16;;;;;;;7.90;3.60;;;;;;;;;;10195012;29;20074;-68
2022/01/17 17:02:18;;;;;;;11.13;3.65;;;;;;;;;;10193196;29;20418;-71
2022/01/17 17:07:22;;;;;;;8.95;4.00;;;;;;;;;;10197537;29;20110;-70
2022/01/17 17:12:24;;;;;;;15.25;4.00;;;;;;;;;;10195078;29;20316;-69
2022/01/17 17:17:27;;;;;;;9.85;3.70;;;;;;;;;;10195138;29;20063;-69
2022/01/17 17:22:33;;;;;;;16.05;4.35;;;;;;;;;;10195568;29;20327;-69
2022/01/17 17:27:35;;;;;;;14.80;4.25;;;;;;;;;;10193384;29;20357;-68
2022/01/17 17:32:38;;;;;;;13.95;4.40;;;;;;;;;;10194698;29;20071;-69
2022/01/17 17:37:42;;;;;;;17.52;4.10;;;;;;;;;;10193939;29;20111;-68
2022/01/17 17:42:44;;;;;;;10.90;4.63;;;;;;;;;;10192835;29;20044;-69
2022/01/17 17:47:46;;;;;;;10.07;3.88;;;;;;;;;;10194740;29;20056;-69
2022/01/17 17:52:50;;;;;;;13.45;5.05;;;;;;;;;;10194043;29;20103;-69
2022/01/17 17:57:53;;;;;;;14.85;4.00;;;;;;;;;;10193833;29;20099;-68
2022/01/17 18:02:55;;;;;;;12.10;3.92;;;;;;;;;;10193109;29;20084;-68
2022/01/17 18:07:59;;;;;;;16.88;5.03;;;;;;;;;;10193301;29;20084;-70
2022/01/17 18:13:03;;;;;;;16.80;4.60;;;;;;;;;;10192203;29;20310;-69
2022/01/17 18:18:05;;;;;;;16.95;4.90;;;;;;;;;;10191980;29;20072;-68
2022/01/17 18:23:09;;;;;;;29.95;8.60;;;;;;;;;;10192657;29;20056;-68
2022/01/17 18:28:14;;;;;;;39.90;9.05;;;;;;;;;;10192464;29;20055;-69
2022/01/17 18:33:19;;;;;;;38.92;9.60;;;;;;;;;;10192070;29;20052;-69
2022/01/17 18:38:22;;;;;;;36.80;9.95;;;;;;;;;;10192515;29;20060;-69
2022/01/17 18:43:25;;;;;;;24.10;6.15;;;;;;;;;;10192898;29;20091;-69
2022/01/17 18:48:29;;;;;;;23.48;5.80;;;;;;;;;;10193431;29;20108;-68
2022/01/17 18:53:36;;;;;;;26.73;6.63;;;;;;;;;;10193602;29;20059;-68
2022/01/17 18:58:38;;;;;;;39.60;9.43;;;;;;;;;;10206075;29;20068;-69
2022/01/17 19:03:41;;;;;;;27.80;6.45;;;;;;;;;;10193963;29;20327;-68
2022/01/17 19:08:45;;;;;;;12.07;4.30;;;;;;;;;;10193331;29;20055;-68
2022/01/17 19:13:47;;;;;;;15.75;5.15;;;;;;;;;;10193159;29;20059;-69
2022/01/17 19:19:18;;;;;;;13.57;4.40;;;;;;;;;;10191971;29;20047;-68
2022/01/17 19:24:24;;;;;;;22.30;6.00;;;;;;;;;;10191191;29;20055;-68
2022/01/17 19:29:26;;;;;;;;;;;;;;;;;;10204881;29;20111;-69
2022/01/17 19:34:28;;;;;;;20.90;7.03;;;;;;;;;;10191339;29;20222;-68
2022/01/17 19:39:33;;;;;;;21.30;6.53;;;;;;;;;;10191814;29;20048;-69
2022/01/17 19:44:35;;;;;;;22.50;7.93;;;;;;;;;;10191407;29;20051;-68
2022/01/17 19:49:38;;;;;;;28.52;9.00;;;;;;;;;;10190329;29;20048;-71
2022/01/17 19:54:42;;;;;;;34.83;9.38;;;;;;;;;;10191074;29;20308;-69
2022/01/17 19:59:46;;;;;;;20.15;7.60;;;;;;;;;;10191130;29;20075;-68
2022/01/17 20:04:49;;;;;;;20.37;8.00;;;;;;;;;;10196786;29;20052;-67
2022/01/17 20:09:52;;;;;;;31.30;10.68;;;;;;;;;;10197266;29;20283;-68
2022/01/17 20:14:55;;;;;;;26.23;8.50;;;;;;;;;;10197019;29;20044;-69
2022/01/17 20:19:57;;;;;;;23.88;8.88;;;;;;;;;;10197786;29;20060;-68
2022/01/17 20:25:01;;;;;;;19.30;6.72;;;;;;;;;;10172424;29;20057;-69
2022/01/17 20:30:04;;;;;;;23.88;7.00;;;;;;;;;;10198292;29;20056;-68
2022/01/17 20:35:10;;;;;;;25.23;7.30;;;;;;;;;;10196229;29;20103;-67
2022/01/17 20:40:14;;;;;;;21.85;6.25;;;;;;;;;;10209288;29;20047;-67
2022/01/17 20:45:17;;;;;;;16.77;5.10;;;;;;;;;;10194688;29;20066;-68
2022/01/17 20:50:19;;;;;;;21.23;6.22;;;;;;;;;;10196226;29;20075;-68
2022/01/17 20:55:23;;;;;;;20.25;6.38;;;;;;;;;;10196326;29;20151;-67
2022/01/17 21:00:26;;;;;;;37.90;12.88;;;;;;;;;;10194656;29;20048;-69
2022/01/17 21:05:28;;;;;;;29.02;8.73;;;;;;;;;;10195032;29;20048;-68
2022/01/17 21:10:32;;;;;;;24.10;6.78;;;;;;;;;;10194863;29;20088;-68
2022/01/17 21:15:34;;;;;;;19.42;6.00;;;;;;;;;;10194347;29;20048;-68
2022/01/17 21:20:37;;;;;;;29.70;9.10;;;;;;;;;;10194739;29;20087;-69
2022/01/17 21:25:41;;;;;;;29.80;10.00;;;;;;;;;;10195342;29;20075;-68
2022/01/17 21:30:43;;;;;;;28.92;7.30;;;;;;;;;;10193894;29;20047;-68
2022/01/17 21:35:46;;;;;;;27.48;6.60;;;;;;;;;;10193427;29;20072;-67
2022/01/17 21:40:50;;;;;;;15.57;5.75;;;;;;;;;;10193960;29;20067;-69
2022/01/17 21:45:53;;;;;;;23.10;7.82;;;;;;;;;;10194478;29;20091;-67
2022/01/17 21:50:55;;;;;;;28.92;9.18;;;;;;;;;;10185024;29;20324;-68
2022/01/17 21:55:59;;;;;;;32.22;8.45;;;;;;;;;;10183101;29;20044;-67
2022/01/17 22:01:01;;;;;;;29.45;8.88;;;;;;;;;;10168821;29;20363;-68
2022/01/17 22:06:04;;;;;;;30.48;9.10;;;;;;;;;;10193270;29;20080;-68
2022/01/17 22:11:08;;;;;;;43.13;11.13;;;;;;;;;;10174521;29;20059;-67
2022/01/17 22:16:10;;;;;;;24.80;7.95;;;;;;;;;;10192202;29;20051;-67
2022/01/17 22:21:13;;;;;;;24.10;6.80;;;;;;;;;;10191769;29;20382;-67
2022/01/17 22:26:16;;;;;;;38.45;9.82;;;;;;;;;;10191590;29;20071;-69
2022/01/17 22:31:19;;;;;;;36.65;10.27;;;;;;;;;;10191671;29;20074;-67
2022/01/17 22:36:22;;;;;;;21.40;5.50;;;;;;;;;;10191214;29;20108;-69
2022/01/17 22:41:26;;;;;;;27.45;7.43;;;;;;;;;;10191705;29;20055;-68
2022/01/17 22:46:28;;;;;;;33.83;8.23;;;;;;;;;;10191607;29;20059;-68
2022/01/17 22:51:30;;;;;;;28.95;7.50;;;;;;;;;;10191119;29;20366;-68
2022/01/17 22:56:34;;;;;;;21.40;5.68;;;;;;;;;;10192058;29;20362;-68
2022/01/17 23:01:42;;;;;;;38.92;9.43;;;;;;;;;;10190204;29;20060;-69
2022/01/17 23:06:47;;;;;;;32.50;7.35;;;;;;;;;;10191808;29;20060;-69
2022/01/17 23:11:51;;;;;;;26.00;8.10;;;;;;;;;;10190832;29;20422;-69
2022/01/17 23:16:59;;;;;;;24.55;6.00;;;;;;;;;;10168822;29;20250;-69
2022/01/17 23:22:03;;;;;;;34.10;5.65;;;;;;;;;;10151156;29;20121;-69
2022/01/17 23:27:07;;;;;;;22.35;5.05;;;;;;;;;;10182800;29;20332;-68
2022/01/17 23:37:30;;;;;;;19.63;5.32;;;;;;;;;;10209599;29;20359;-69
2022/01/17 23:42:34;;;;;;;28.80;6.45;;;;;;;;;;10197613;29;20067;-69
2022/01/17 23:47:36;;;;;;;32.10;6.07;;;;;;;;;;10198101;29;20224;-69
2022/01/17 23:52:38;;;;;;;32.95;6.07;;;;;;;;;;10197490;29;20056;-68
2022/01/17 23:57:56;;;;;;;27.67;6.30;;;;;;;;;;10197144;29;20086;-68
